Time;durP1;ratioP1;P1;durP2;ratioP2;P2;SDS_P1;SDS_P2;PMS_P1;PMS_P2;Temp;Humidity;BMP_temperature;BMP_pressure;BME280_temperature;BME280_humidity;BME280_pressure;Samples;Min_cycle;Max_cycle;Signal;HPM_P1;HPM_P2
2022/11/21 00:01:53;;;;;;;15.87;6.90;;;;;;;14.72;nan;102367.38;6084049;23;20401;-90
2022/11/21 00:04:23;;;;;;;15.33;6.87;;;;;;;14.61;nan;102334.78;6083963;23;20533;-90
2022/11/21 00:06:54;;;;;;;19.27;8.47;;;;;;;14.56;nan;102339.97;6087323;23;20416;-90
2022/11/21 00:09:32;;;;;;;21.17;9.30;;;;;;;14.65;nan;102356.22;6093246;23;20429;-89
2022/11/21 00:12:07;;;;;;;16.90;9.40;;;;;;;14.59;nan;102345.13;6108422;23;20476;-90
2022/11/21 00:14:36;;;;;;;25.00;11.10;;;;;;;14.57;nan;102345.28;6107291;23;20407;-89
2022/11/21 00:17:06;;;;;;;24.03;11.77;;;;;;;14.54;nan;102345.66;6083860;23;20441;-90
2022/11/21 00:19:46;;;;;;;20.10;8.13;;;;;;;14.55;nan;102352.00;6083731;23;20405;-90
2022/11/21 00:22:20;;;;;;;15.60;7.00;;;;;;;14.48;nan;102343.63;6084266;23;20842;-89
2022/11/21 00:24:49;;;;;;;21.33;7.67;;;;;;;14.46;nan;102332.78;6107032;23;20407;-89
2022/11/21 00:27:20;;;;;;;18.40;6.83;;;;;;;14.44;nan;102331.25;6085109;23;20460;-90
2022/11/21 00:30:05;;;;;;;13.40;6.43;;;;;;;14.46;nan;102342.94;6083410;23;20580;-89
2022/11/21 00:32:34;;;;;;;19.93;7.53;;;;;;;14.39;nan;102331.78;6084834;23;20460;-89
2022/11/21 00:35:02;;;;;;;18.10;5.17;;;;;;;14.35;nan;102324.91;6083885;23;20472;-89
2022/11/21 00:37:31;;;;;;;11.80;4.53;;;;;;;14.34;nan;102320.44;6083531;23;20461;-90
2022/11/21 00:40:06;;;;;;;12.80;5.07;;;;;;;14.21;nan;102300.06;6084241;23;20401;-89
2022/11/21 00:42:41;;;;;;;8.40;4.30;;;;;;;14.23;nan;102317.25;6082685;23;20417;-89
2022/11/21 00:45:11;;;;;;;14.40;6.93;;;;;;;14.17;nan;102316.94;6107488;23;20495;-89
2022/11/21 00:47:47;;;;;;;9.00;3.93;;;;;;;14.14;nan;102322.78;6083631;23;20461;-89
2022/11/21 00:50:15;;;;;;;7.20;3.03;;;;;;;14.07;nan;102331.91;6107151;23;20540;-89
2022/11/21 00:52:45;;;;;;;7.43;2.80;;;;;;;14.00;nan;102336.44;6083721;23;20467;-89
2022/11/21 00:55:12;;;;;;;5.30;2.10;;;;;;;13.91;nan;102323.72;6083594;23;20872;-89
2022/11/21 00:57:43;;;;;;;5.10;1.90;;;;;;;13.83;nan;102330.97;6083454;23;20989;-90
2022/11/21 01:00:13;;;;;;;8.70;1.83;;;;;;;13.81;nan;102330.31;6107328;23;20464;-89
2022/11/21 01:02:41;;;;;;;8.60;1.70;;;;;;;13.81;nan;102326.69;6083656;23;20460;-89
2022/11/21 01:05:18;;;;;;;7.40;1.63;;;;;;;13.75;nan;102322.75;6082805;23;20417;-90
2022/11/21 01:07:52;;;;;;;6.60;1.77;;;;;;;13.76;nan;102329.09;6083030;23;20448;-90
2022/11/21 01:10:30;;;;;;;8.43;1.90;;;;;;;13.78;nan;102333.41;6083386;23;20822;-90
2022/11/21 01:13:01;;;;;;;16.70;1.97;;;;;;;13.66;nan;102318.28;6106137;23;20396;-90
2022/11/21 01:15:30;;;;;;;7.90;1.50;;;;;;;13.66;nan;102318.28;6107570;23;20473;-89
2022/11/21 01:17:58;;;;;;;6.10;3.40;;;;;;;13.61;nan;102315.25;6083361;23;20405;-90
2022/11/21 01:20:42;;;;;;;14.90;6.80;;;;;;;13.68;nan;102329.97;6083646;23;20472;-90
2022/11/21 01:23:19;;;;;;;10.80;5.90;;;;;;;13.64;nan;102325.03;6107211;23;20480;-90
2022/11/21 01:26:13;;;;;;;11.37;4.20;;;;;;;13.58;nan;102317.47;6106676;23;20890;-90
2022/11/21 01:28:40;;;;;;;17.10;4.77;;;;;;;13.46;nan;102298.63;6130986;23;20556;-90
2022/11/21 01:31:09;;;;;;;10.63;3.93;;;;;;;13.47;nan;102302.19;6083407;23;20507;-89
2022/11/21 01:33:38;;;;;;;8.93;4.07;;;;;;;13.41;nan;102300.16;6107128;23;20469;-90
2022/11/21 01:36:16;;;;;;;10.23;3.80;;;;;;;13.33;nan;102292.78;6083804;23;20976;-90
2022/11/21 01:38:53;;;;;;;11.33;3.33;;;;;;;13.27;nan;102285.28;6083783;23;20415;-90
2022/11/21 01:41:32;;;;;;;10.90;4.00;;;;;;;13.26;nan;102286.31;6082902;23;20439;-90
2022/11/21 01:44:19;;;;;;;7.33;3.50;;;;;;;13.25;nan;102301.06;6084446;23;20412;-90
2022/11/21 01:46:54;;;;;;;11.33;4.40;;;;;;;13.08;nan;102275.44;6106990;23;20724;-90
2022/11/21 01:49:34;;;;;;;9.10;2.00;;;;;;;13.07;nan;102273.75;6131376;23;20417;-89
2022/11/21 01:55:42;;;;;;;8.30;2.73;;;;;;;13.04;nan;102278.72;6156555;23;20712;-89
2022/11/21 01:58:10;;;;;;;5.60;2.00;;;;;;;12.94;nan;102267.91;6093421;23;20417;-89
2022/11/21 02:00:38;;;;;;;4.67;2.20;;;;;;;12.99;nan;102264.66;6099403;23;20868;-90
2022/11/21 02:03:23;;;;;;;5.97;2.40;;;;;;;13.02;nan;102278.91;6086833;23;20413;-89
2022/11/21 02:05:52;;;;;;;6.03;2.80;;;;;;;12.99;nan;102276.50;6130746;23;20748;-89
2022/11/21 02:08:28;;;;;;;6.10;3.20;;;;;;;12.93;nan;102260.72;6082692;23;20412;-90
2022/11/21 02:11:18;;;;;;;7.93;4.07;;;;;;;12.98;nan;102262.94;6083223;23;20551;-89
2022/11/21 02:14:02;;;;;;;8.60;2.90;;;;;;;12.97;nan;102261.22;6106676;23;20895;-90
2022/11/21 02:16:33;;;;;;;16.00;6.63;;;;;;;12.97;nan;102266.72;6107024;23;20464;-90
2022/11/21 02:19:18;;;;;;;12.37;7.60;;;;;;;12.95;nan;102258.66;5996955;23;21029;-90
2022/11/21 02:21:59;;;;;;;20.13;8.73;;;;;;;12.92;nan;102258.13;5997482;23;20468;-90
2022/11/21 02:24:37;;;;;;;14.00;6.23;;;;;;;12.95;nan;102253.16;6021686;23;20407;-90
2022/11/21 02:27:24;;;;;;;11.10;2.93;;;;;;;12.96;nan;102257.63;6021644;23;20551;-90
2022/11/21 02:30:00;;;;;;;7.47;1.70;;;;;;;12.98;nan;102263.81;6021984;23;20543;-90
2022/11/21 02:32:32;;;;;;;8.53;1.40;;;;;;;12.92;nan;102247.16;5999061;23;20411;-89
2022/11/21 02:35:07;;;;;;;11.70;1.70;;;;;;;13.02;nan;102248.72;5998720;23;20536;-90
2022/11/21 02:38:21;;;;;;;6.37;1.80;;;;;;;13.08;nan;102255.41;6065719;23;20408;-89
2022/11/21 02:41:02;;;;;;;10.77;1.90;;;;;;;13.08;nan;102241.69;6108422;23;20397;-90
2022/11/21 02:43:41;;;;;;;8.13;1.13;;;;;;;13.13;nan;102242.00;6021445;23;20467;-90
2022/11/21 02:46:09;;;;;;;8.73;2.23;;;;;;;13.21;nan;102235.69;6023089;23;20959;-89
2022/11/21 02:48:39;;;;;;;12.03;1.47;;;;;;;13.23;nan;102230.88;6021227;23;20520;-89
2022/11/21 02:51:16;;;;;;;11.60;1.70;;;;;;;13.33;nan;102235.13;5997327;23;20518;-90
2022/11/21 02:53:55;;;;;;;9.13;2.00;;;;;;;13.33;nan;102228.78;6044587;23;20554;-90
2022/11/21 02:56:34;;;;;;;15.10;4.60;;;;;;;13.43;nan;102234.94;6021664;23;20494;-90
2022/11/21 02:59:24;;;;;;;14.93;5.10;;;;;;;13.45;nan;102239.22;6044678;23;20547;-90
2022/11/21 03:02:14;;;;;;;19.87;8.60;;;;;;;13.46;nan;102218.97;6044343;23;20404;-90
2022/11/21 03:04:46;;;;;;;22.97;7.60;;;;;;;13.43;nan;102229.44;6044134;23;20806;-90
2022/11/21 03:07:29;;;;;;;16.33;4.83;;;;;;;13.47;nan;102225.28;6056490;23;20475;-89
2022/11/21 03:09:58;;;;;;;16.20;6.07;;;;;;;13.39;nan;102215.22;6108116;23;20416;-89
2022/11/21 03:12:28;;;;;;;18.07;7.60;;;;;;;13.42;nan;102212.13;6084718;23;20880;-90
2022/11/21 03:14:56;;;;;;;21.27;7.10;;;;;;;13.42;nan;102220.34;6084333;23;20431;-89
2022/11/21 03:17:31;;;;;;;15.80;4.80;;;;;;;13.44;nan;102214.69;6108179;23;20417;-89
2022/11/21 03:20:07;;;;;;;16.67;4.00;;;;;;;13.40;nan;102210.56;6084407;23;20385;-89
2022/11/21 03:22:38;;;;;;;13.67;2.90;;;;;;;13.49;nan;102223.22;6107373;23;20416;-90
2022/11/21 03:25:07;;;;;;;8.07;3.43;;;;;;;13.45;nan;102216.41;6108118;23;20472;-89
2022/11/21 03:27:34;;;;;;;22.67;9.53;;;;;;;13.49;nan;102213.09;6083224;23;20495;-90
2022/11/21 03:30:04;;;;;;;36.03;14.13;;;;;;;13.50;nan;102216.69;6087252;23;20472;-90
2022/11/21 03:32:36;;;;;;;47.50;18.77;;;;;;;13.54;nan;102201.59;6112957;23;20397;-90
2022/11/21 03:35:25;;;;;;;35.97;13.93;;;;;;;13.61;nan;102199.84;6083574;23;20416;-90
2022/11/21 03:38:02;;;;;;;20.07;8.43;;;;;;;13.61;nan;102199.00;6107505;23;20795;-89
2022/11/21 03:40:57;;;;;;;22.43;8.27;;;;;;;13.69;nan;102202.53;6108748;23;20468;-93
2022/11/21 03:43:26;;;;;;;32.60;12.60;;;;;;;13.69;nan;102197.06;6131360;23;20412;-90
2022/11/21 03:46:07;;;;;;;37.07;13.83;;;;;;;13.76;nan;102209.06;6084195;23;20408;-89
2022/11/21 03:48:36;;;;;;;19.60;7.67;;;;;;;13.73;nan;102203.91;6083929;23;20493;-89
2022/11/21 03:51:03;;;;;;;23.20;9.27;;;;;;;13.75;nan;102196.34;6083996;23;20432;-89
2022/11/21 03:53:32;;;;;;;21.00;7.33;;;;;;;13.71;nan;102184.00;6083262;23;20412;-90
2022/11/21 03:56:07;;;;;;;14.50;5.37;;;;;;;13.87;nan;102205.03;6106453;23;20412;-89
2022/11/21 03:58:42;;;;;;;12.57;5.60;;;;;;;13.83;nan;102190.81;6083648;23;20905;-90
2022/11/21 04:01:11;;;;;;;15.50;4.97;;;;;;;13.90;nan;102195.56;6106978;23;20448;-89
2022/11/21 04:03:51;;;;;;;11.53;4.00;;;;;;;13.91;nan;102189.03;6084367;23;20423;-90
2022/11/21 04:06:29;;;;;;;9.60;3.87;;;;;;;13.88;nan;102175.66;6084334;23;20535;-89
2022/11/21 04:08:57;;;;;;;8.53;3.10;;;;;;;13.89;nan;102164.47;6108442;23;20517;-89
2022/11/21 04:11:33;;;;;;;18.77;3.27;;;;;;;14.02;nan;102177.66;6107623;23;20425;-89
2022/11/21 04:14:01;;;;;;;9.93;3.20;;;;;;;14.00;nan;102171.47;6083529;23;20417;-89
2022/11/21 04:16:39;;;;;;;14.13;6.90;;;;;;;14.07;nan;102169.69;6083713;23;20787;-90
2022/11/21 04:19:07;;;;;;;16.17;6.43;;;;;;;14.07;nan;102173.31;6108256;23;20460;-90
2022/11/21 04:21:41;;;;;;;9.23;2.80;;;;;;;14.04;nan;102159.09;6084447;23;20385;-89
2022/11/21 04:24:13;;;;;;;7.57;2.93;;;;;;;14.12;nan;102170.88;6083575;23;20472;-89
2022/11/21 04:26:41;;;;;;;19.60;9.70;;;;;;;14.11;nan;102162.81;6107995;23;20464;-89
2022/11/21 04:29:10;;;;;;;25.60;12.50;;;;;;;14.14;nan;102174.31;6083352;23;20487;-90
2022/11/21 04:31:38;;;;;;;15.67;6.80;;;;;;;14.16;nan;102176.88;6107227;23;20497;-90
2022/11/21 04:34:07;;;;;;;9.87;4.57;;;;;;;14.17;nan;102176.69;6107509;23;20495;-90
2022/11/21 04:36:38;;;;;;;8.23;4.57;;;;;;;14.20;nan;102185.63;6131570;23;20528;-89
2022/11/21 04:39:08;;;;;;;17.50;9.33;;;;;;;14.17;nan;102175.84;6107156;23;20954;-89
2022/11/21 04:41:36;;;;;;;13.80;5.43;;;;;;;14.14;nan;102167.94;6107070;23;20489;-87
2022/11/21 04:44:06;;;;;;;11.33;5.50;;;;;;;14.17;nan;102164.84;6083165;23;20476;-89
2022/11/21 04:46:37;;;;;;;31.93;20.10;;;;;;;14.11;nan;102155.41;6083099;23;20428;-89
2022/11/21 04:49:14;;;;;;;24.07;12.77;;;;;;;14.28;nan;102169.03;6106792;23;20484;-89
2022/11/21 04:51:42;;;;;;;15.73;5.93;;;;;;;14.26;nan;102157.38;6106798;23;20451;-90
2022/11/21 04:54:10;;;;;;;12.37;6.00;;;;;;;14.31;nan;102161.28;6082678;23;20413;-89
2022/11/21 04:56:43;;;;;;;16.20;7.20;;;;;;;14.31;nan;102155.78;6083780;23;20484;-89
2022/11/21 04:59:11;;;;;;;16.50;6.90;;;;;;;14.28;nan;102147.91;6083100;23;20496;-89
2022/11/21 05:01:41;;;;;;;16.27;9.70;;;;;;;14.37;nan;102146.81;6130609;23;20397;-89
2022/11/21 05:04:11;;;;;;;25.60;13.73;;;;;;;14.40;nan;102149.22;6083818;23;20853;-89
2022/11/21 05:06:46;;;;;;;18.90;12.27;;;;;;;14.42;nan;102144.41;5997218;23;20544;-89
2022/11/21 05:09:20;;;;;;;16.40;10.07;;;;;;;14.43;nan;102151.59;6019406;23;20477;-88
2022/11/21 05:14:42;;;;;;;23.07;14.50;;;;;;;14.48;nan;102126.28;6027080;23;20403;-89
2022/11/21 05:17:11;;;;;;;36.43;19.07;;;;;;;14.49;nan;102128.84;5996590;23;20419;-89
2022/11/21 05:19:39;;;;;;;8.53;4.90;;;;;;;14.62;nan;102121.88;5996041;23;20580;-89
2022/11/21 05:22:08;;;;;;;8.87;1.93;;;;;;;14.83;nan;102124.72;6019549;23;20939;-89
2022/11/21 05:24:42;;;;;;;5.00;0.90;;;;;;;15.02;nan;102129.69;6031783;23;20401;-90
2022/11/21 05:27:11;;;;;;;2.97;0.93;;;;;;;15.15;nan;102124.38;6082869;23;20412;-89
2022/11/21 05:29:41;;;;;;;3.73;1.00;;;;;;;15.28;nan;102133.88;6082745;23;20447;-89
2022/11/21 05:32:17;;;;;;;6.13;0.80;;;;;;;15.42;nan;102133.84;6106534;23;20437;-89
2022/11/21 05:34:51;;;;;;;2.60;0.90;;;;;;;15.45;nan;102125.19;6106523;23;20456;-89
2022/11/21 05:37:27;;;;;;;4.60;0.60;;;;;;;15.49;nan;102111.91;6082929;23;20412;-89
2022/11/21 05:39:54;;;;;;;1.80;0.60;;;;;;;15.57;nan;102110.97;6082403;23;20468;-89
2022/11/21 05:45:24;;;;;;;2.90;0.97;;;;;;;15.66;nan;102116.16;6087969;23;20420;-89
2022/11/21 05:47:58;;;;;;;3.50;1.30;;;;;;;15.70;nan;102116.63;6083066;23;20970;-89
2022/11/21 05:50:26;;;;;;;12.40;1.33;;;;;;;15.71;nan;102115.59;6086728;23;20409;-89
2022/11/21 05:53:01;;;;;;;11.90;0.80;;;;;;;15.72;nan;102115.41;6097442;23;20463;-89
2022/11/21 05:55:29;;;;;;;4.17;0.70;;;;;;;15.72;nan;102109.88;6136901;23;20400;-90
2022/11/21 05:57:59;;;;;;;5.63;0.83;;;;;;;15.73;nan;102114.34;6083363;23;20481;-90
2022/11/21 06:00:34;;;;;;;4.03;0.87;;;;;;;15.70;nan;102108.38;6085172;23;20416;-90
2022/11/21 06:06:01;;;;;;;3.13;0.67;;;;;;;15.58;nan;102109.94;6118176;23;20630;-90
2022/11/21 06:08:37;;;;;;;4.13;0.80;;;;;;;15.39;nan;102086.56;6085507;23;20532;-88
2022/11/21 06:11:08;;;;;;;8.60;1.00;;;;;;;15.40;nan;102105.63;6108546;23;20439;-89
2022/11/21 06:13:47;;;;;;;5.73;1.17;;;;;;;15.38;nan;102106.91;6085499;23;20451;-89
2022/11/21 06:16:19;;;;;;;4.33;1.10;;;;;;;15.32;nan;102099.38;6110111;23;20388;-89
2022/11/21 06:19:02;;;;;;;5.37;1.93;;;;;;;15.34;nan;102113.81;6084721;23;20525;-89
2022/11/21 06:21:33;;;;;;;8.27;3.50;;;;;;;15.23;nan;102104.13;6107996;23;20795;-89
2022/11/21 06:24:15;;;;;;;13.30;3.17;;;;;;;15.30;nan;102124.38;6101764;23;20412;-88
2022/11/21 06:26:59;;;;;;;9.70;2.80;;;;;;;15.39;nan;102116.88;6088296;23;20552;-89
2022/11/21 06:29:27;;;;;;;7.47;1.27;;;;;;;15.47;nan;102098.31;6107683;23;20440;-90
2022/11/21 06:31:56;;;;;;;7.97;1.93;;;;;;;15.58;nan;102108.03;6084271;23;20443;-89
2022/11/21 06:34:29;;;;;;;12.77;4.93;;;;;;;15.58;nan;102091.50;6084297;23;20409;-90
2022/11/21 06:37:06;;;;;;;7.70;2.30;;;;;;;15.68;nan;102103.06;6085029;23;20382;-90
2022/11/21 06:39:35;;;;;;;10.60;1.53;;;;;;;15.70;nan;102103.72;6108649;23;20408;-90
2022/11/21 06:42:11;;;;;;;10.33;1.77;;;;;;;15.74;nan;102096.78;6084364;23;20705;-89
2022/11/21 06:45:04;;;;;;;16.40;1.70;;;;;;;15.85;nan;102110.03;6085017;23;20848;-90
2022/11/21 06:47:40;;;;;;;7.30;1.37;;;;;;;15.97;nan;102110.34;6107841;23;20413;-89
2022/11/21 06:50:10;;;;;;;11.10;1.73;;;;;;;15.97;nan;102102.09;6108509;23;20460;-90
2022/11/21 06:52:44;;;;;;;10.73;2.10;;;;;;;16.02;nan;102104.25;6118119;23;20428;-89
2022/11/21 06:55:31;;;;;;;14.40;1.50;;;;;;;16.13;nan;102101.00;6102641;23;20389;-90
2022/11/21 06:58:08;;;;;;;6.63;1.20;;;;;;;16.18;nan;102104.84;6132400;23;20777;-89
2022/11/21 07:00:36;;;;;;;7.13;1.13;;;;;;;16.15;nan;102094.25;6132221;23;20547;-89
2022/11/21 07:03:05;;;;;;;14.53;1.30;;;;;;;16.20;nan;102107.41;6084499;23;20551;-89
2022/11/21 07:05:38;;;;;;;10.57;1.50;;;;;;;16.19;nan;102108.47;6084302;23;20974;-89
2022/11/21 07:08:07;;;;;;;10.43;1.40;;;;;;;16.21;nan;102114.63;6083889;23;20974;-90
2022/11/21 07:10:40;;;;;;;10.23;1.20;;;;;;;16.19;nan;102105.69;6088763;23;20448;-90
2022/11/21 07:13:29;;;;;;;4.57;0.90;;;;;;;16.19;nan;102097.44;6096459;23;20775;-88
2022/11/21 07:16:00;;;;;;;8.10;1.20;;;;;;;16.19;nan;102098.28;6083562;23;20413;-89
2022/11/21 07:18:39;;;;;;;7.27;1.43;;;;;;;16.17;nan;102092.09;6107930;23;20967;-88
2022/11/21 07:21:08;;;;;;;8.23;1.40;;;;;;;16.08;nan;102075.91;6108217;23;20472;-89
2022/11/21 07:23:39;;;;;;;12.33;1.47;;;;;;;16.21;nan;102100.84;6084093;23;20472;-89
2022/11/21 07:26:07;;;;;;;9.83;1.37;;;;;;;16.21;nan;102087.06;6131429;23;20413;-89
2022/11/21 07:28:35;;;;;;;3.90;1.00;;;;;;;16.27;nan;102094.53;6078775;23;20589;-89
2022/11/21 07:31:03;;;;;;;4.70;1.10;;;;;;;16.28;nan;102092.63;6078650;23;20956;-89
2022/11/21 07:33:38;;;;;;;4.50;1.00;;;;;;;16.22;nan;102099.78;6080186;23;20497;-89
2022/11/21 07:36:10;;;;;;;3.43;0.70;;;;;;;16.13;nan;102089.97;6055308;23;20465;-89
2022/11/21 07:38:40;;;;;;;6.93;0.80;;;;;;;16.21;nan;102098.09;5991777;23;20419;-89
2022/11/21 07:41:14;;;;;;;4.50;0.90;;;;;;;16.15;nan;102087.88;6015883;23;20420;-88
2022/11/21 07:43:41;;;;;;;2.10;0.70;;;;;;;16.14;nan;102097.19;5991623;23;20888;-89
2022/11/21 07:46:09;;;;;;;5.77;1.20;;;;;;;16.10;nan;102106.91;6062672;23;20486;-89
2022/11/21 07:48:39;;;;;;;4.97;1.20;;;;;;;16.07;nan;102104.53;6038783;23;20533;-90
2022/11/21 07:51:16;;;;;;;3.97;1.23;;;;;;;16.05;nan;102120.41;6062758;23;20409;-90
2022/11/21 07:53:46;;;;;;;5.87;1.10;;;;;;;15.98;nan;102117.59;6038836;23;20499;-90
2022/11/21 07:56:38;;;;;;;2.73;0.83;;;;;;;16.01;nan;102132.88;6080597;23;20398;-90
2022/11/21 08:02:22;;;;;;;3.97;0.80;;;;;;;15.95;nan;102115.25;6127185;23;20421;-89
2022/11/21 08:05:04;;;;;;;4.33;1.33;;;;;;;16.02;nan;102140.13;5992235;23;20408;-91
2022/11/21 08:07:54;;;;;;;3.50;0.90;;;;;;;16.07;nan;102138.50;6014935;23;20457;-90
2022/11/21 08:10:24;;;;;;;5.73;0.87;;;;;;;16.13;nan;102131.34;5992194;23;20545;-89
2022/11/21 08:13:02;;;;;;;7.73;1.53;;;;;;;16.14;nan;102122.00;5992237;23;20584;-89
2022/11/21 08:19:59;;;;;;;;;;;;;;;;;;;;;
2022/11/21 08:23:21;;;;;;;8.83;2.40;;;;;;;16.32;nan;102083.78;6032815;23;20432;-90
2022/11/21 08:25:58;;;;;;;3.00;1.50;;;;;;;16.40;nan;102121.41;6015288;23;20416;-90
2022/11/21 08:28:25;;;;;;;5.33;1.70;;;;;;;16.45;nan;102117.00;5999997;23;20451;-91
2022/11/21 08:30:54;;;;;;;6.93;1.70;;;;;;;16.48;nan;102100.03;6083807;23;20910;-90
2022/11/21 08:33:23;;;;;;;11.20;1.67;;;;;;;16.55;nan;102095.41;6083490;23;20507;-89
2022/11/21 08:35:54;;;;;;;9.30;2.00;;;;;;;16.64;nan;102092.53;6083472;23;20421;-89
2022/11/21 08:38:23;;;;;;;10.47;3.50;;;;;;;16.63;nan;102085.28;6131446;23;20480;-90
2022/11/21 08:42:01;;;;;;;9.63;5.03;;;;;;;16.61;nan;102059.78;6083230;23;20416;-88
2022/11/21 08:43:44;;;;;;;14.67;4.40;;;;;;;16.79;nan;102069.28;6116471;23;20479;-90
2022/11/21 08:46:14;;;;;;;9.67;3.30;;;;;;;16.84;nan;102076.97;6083159;23;20815;-90
2022/11/21 08:48:42;;;;;;;8.23;1.80;;;;;;;16.88;nan;102081.03;6107209;23;20409;-88
2022/11/21 08:51:11;;;;;;;8.13;1.33;;;;;;;;;;6082788;23;20408;-89
2022/11/21 08:53:38;;;;;;;4.07;1.20;;;;;;;;;;6106347;23;20437;-89
2022/11/21 08:56:27;;;;;;;8.03;1.40;;;;;;;;;;6106808;23;20369;-89
2022/11/21 10:26:03;;;;;;;8.90;1.67;;;;;;;16.95;nan;101902.41;6156554;23;20484;-87
2022/11/21 10:28:57;;;;;;;16.87;2.40;;;;;;;18.75;nan;102196.63;6087536;23;20416;-90
2022/11/21 10:32:19;;;;;;;18.00;3.30;;;;;;;18.92;nan;102211.75;6095281;23;20470;-90
2022/11/21 10:34:47;;;;;;;14.53;2.27;;;;;;;18.94;nan;102197.69;6070649;23;20464;-87
2022/11/21 10:37:41;;;;;;;11.53;2.33;;;;;;;19.06;nan;102198.75;6083208;23;20413;-89
2022/11/21 10:40:37;;;;;;;16.97;1.67;;;;;;;19.19;nan;102195.97;6090317;23;20373;-87
2022/11/21 10:46:16;;;;;;;9.33;1.30;;;;;;;19.46;nan;102184.81;6157667;23;20377;-90
2022/11/21 10:48:59;;;;;;;8.50;1.33;;;;;;;19.48;nan;102193.78;6084335;23;20400;-90
2022/11/21 10:51:35;;;;;;;21.43;2.47;;;;;;;19.49;nan;102207.44;6107982;23;20879;-89
2022/11/21 10:54:32;;;;;;;13.23;2.20;;;;;;;19.35;nan;102202.97;6131480;23;20424;-88
2022/11/21 10:57:15;;;;;;;8.67;1.60;;;;;;;19.29;nan;102213.00;6136591;23;20397;-86
2022/11/21 11:00:18;;;;;;;9.97;1.60;;;;;;;19.18;nan;102210.06;6155467;23;20742;-87
2022/11/21 11:03:03;;;;;;;13.03;1.67;;;;;;;19.17;nan;102200.03;5990540;23;20463;-87
2022/11/21 11:05:37;;;;;;;10.33;1.80;;;;;;;19.25;nan;102205.34;5991605;23;20978;-87
2022/11/21 11:08:12;;;;;;;9.07;1.40;;;;;;;19.42;nan;102186.34;6014911;23;20405;-87
2022/11/21 11:10:44;;;;;;;11.00;1.30;;;;;;;19.59;nan;102171.81;5991640;23;20499;-87
2022/11/21 11:16:17;;;;;;;15.47;2.17;;;;;;;20.00;nan;102109.50;5907609;24;20423;-87
2022/11/21 11:19:25;;;;;;;15.77;2.10;;;;;;;20.18;nan;102067.97;5881803;24;20770;-87
2022/11/21 11:22:01;;;;;;;10.67;1.50;;;;;;;20.56;nan;102073.44;5912264;24;20427;-87
2022/11/21 11:24:32;;;;;;;9.93;1.90;;;;;;;20.79;nan;102072.78;5883413;24;20436;-87
2022/11/21 11:27:00;;;;;;;10.33;2.10;;;;;;;20.93;nan;102059.59;5925817;24;20423;-87
2022/11/21 11:29:34;;;;;;;14.80;1.73;;;;;;;20.94;nan;102047.41;5881249;24;20420;-87
2022/11/21 11:32:13;;;;;;;8.80;1.77;;;;;;;21.03;nan;102048.78;5881600;24;20491;-86
2022/11/21 11:34:57;;;;;;;10.17;1.53;;;;;;;21.06;nan;102070.56;5978671;23;20420;-87
2022/11/21 11:37:25;;;;;;;8.87;1.47;;;;;;;20.89;nan;102077.81;6047357;23;20839;-87
2022/11/21 11:39:58;;;;;;;14.67;2.23;;;;;;;20.66;nan;102076.53;6126754;23;20409;-88
2022/11/21 11:48:11;;;;;;;8.33;1.50;;;;;;;20.40;nan;102110.09;6087712;23;20414;-87
2022/11/21 11:50:48;;;;;;;6.83;1.00;;;;;;;20.62;nan;102100.28;6077697;23;20410;-87
2022/11/21 11:53:25;;;;;;;9.00;1.90;;;;;;;20.88;nan;102117.81;6055529;23;20520;-87
2022/11/21 11:55:54;;;;;;;8.47;1.37;;;;;;;20.96;nan;102103.63;6053832;23;20432;-87
2022/11/21 11:58:33;;;;;;;7.17;1.20;;;;;;;21.12;nan;102108.59;6100908;23;20416;-88
2022/11/21 12:01:14;;;;;;;6.70;1.60;;;;;;;21.27;nan;102095.16;6100552;23;20470;-87
2022/11/21 12:03:56;;;;;;;10.70;1.30;;;;;;;21.44;nan;102106.53;6078479;23;20881;-87
2022/11/21 12:06:25;;;;;;;4.10;1.20;;;;;;;21.40;nan;102112.78;6100912;23;20927;-87
2022/11/21 12:09:34;;;;;;;13.13;1.60;;;;;;;21.21;nan;102109.16;6086141;23;20426;-88
2022/11/21 12:12:07;;;;;;;7.13;1.30;;;;;;;21.01;nan;102092.66;6100436;23;20413;-87
2022/11/21 12:18:06;;;;;;;8.63;1.27;;;;;;;20.76;nan;102092.72;6126585;23;20432;-87
2022/11/21 12:20:35;;;;;;;6.70;1.07;;;;;;;20.59;nan;102077.69;6100744;23;20492;-87
2022/11/21 12:23:02;;;;;;;11.80;1.50;;;;;;;20.56;nan;102080.94;6101130;23;20413;-88
2022/11/21 12:25:41;;;;;;;10.07;1.23;;;;;;;20.52;nan;102066.63;6120922;23;20515;-87
2022/11/21 12:28:34;;;;;;;12.60;1.80;;;;;;;20.67;nan;102061.56;6084289;23;20910;-88
2022/11/21 12:31:32;;;;;;;12.73;1.40;;;;;;;20.90;nan;102071.19;6131295;23;20405;-90
2022/11/21 12:34:37;;;;;;;13.80;1.47;;;;;;;20.93;nan;102085.47;6037879;23;20471;-92
2022/11/21 12:37:21;;;;;;;9.27;1.50;;;;;;;20.92;nan;102077.38;6014932;23;20416;-91
2022/11/21 12:55:15;;;;;;;8.33;1.50;;;;;;;20.73;nan;102042.28;6037996;23;20398;-87
2022/11/21 12:58:03;;;;;;;8.40;1.23;;;;;;;20.65;nan;102057.31;6013674;23;20417;-88
2022/11/21 13:00:41;;;;;;;5.57;1.20;;;;;;;20.69;nan;102064.97;6013222;23;20408;-88
2022/11/21 13:03:32;;;;;;;4.13;1.00;;;;;;;20.67;nan;102067.13;6013620;23;20388;-88
2022/11/21 13:05:59;;;;;;;10.03;1.47;;;;;;;20.58;nan;102068.50;6022311;23;20441;-88
2022/11/21 13:08:29;;;;;;;12.90;1.37;;;;;;;20.49;nan;102047.63;5999191;23;20393;-88
2022/11/21 13:14:20;;;;;;;13.37;1.53;;;;;;;20.55;nan;102024.50;6133987;23;20441;-88
2022/11/21 13:17:20;;;;;;;8.70;1.40;;;;;;;20.45;nan;102004.72;6129889;23;20405;-88
2022/11/21 13:19:57;;;;;;;8.27;1.00;;;;;;;20.57;nan;102000.13;6129392;23;20401;-88
2022/11/21 13:22:37;;;;;;;8.70;1.33;;;;;;;20.61;nan;102001.34;6130770;23;20467;-88
2022/11/21 13:25:39;;;;;;;8.87;1.60;;;;;;;20.68;nan;101990.19;6129383;23;20432;-88
2022/11/21 13:28:12;;;;;;;5.80;1.37;;;;;;;20.86;nan;101975.44;6155299;23;20480;-88
2022/11/21 13:30:49;;;;;;;14.53;1.30;;;;;;;21.01;nan;101973.09;6129282;23;20488;-89
2022/11/21 13:33:38;;;;;;;12.47;2.50;;;;;;;21.19;nan;101952.75;6081254;23;20440;-88
2022/11/21 13:36:12;;;;;;;14.60;1.60;;;;;;;21.19;nan;101938.88;6155218;23;20405;-87
2022/11/21 13:38:52;;;;;;;7.57;1.53;;;;;;;21.35;nan;101958.59;6105739;23;20895;-87
2022/11/21 13:44:30;;;;;;;9.13;1.50;;;;;;;21.29;nan;101953.09;6155402;23;20405;-87
2022/11/21 13:47:23;;;;;;;10.83;1.60;;;;;;;21.26;nan;101948.84;6155457;23;20483;-87
2022/11/21 13:50:27;;;;;;;9.07;1.53;;;;;;;21.24;nan;101945.47;6155345;23;20496;-87
2022/11/21 13:53:27;;;;;;;8.50;1.63;;;;;;;21.23;nan;101938.19;6129622;23;20524;-88
2022/11/21 13:55:57;;;;;;;18.40;2.23;;;;;;;21.18;nan;101935.22;6154855;23;20401;-87
2022/11/21 13:58:49;;;;;;;14.93;1.57;;;;;;;21.15;nan;101927.38;6105773;23;20488;-88
2022/11/21 14:01:24;;;;;;;11.00;1.43;;;;;;;21.14;nan;101911.78;6133000;23;20726;-87
2022/11/21 14:03:58;;;;;;;8.40;2.00;;;;;;;21.13;nan;101910.09;6128935;23;20416;-87
2022/11/21 14:06:38;;;;;;;9.70;1.60;;;;;;;21.17;nan;101900.16;6127493;23;20722;-87
2022/11/21 14:09:29;;;;;;;8.67;1.40;;;;;;;21.19;nan;101892.44;6104864;23;20401;-87
2022/11/21 14:12:04;;;;;;;13.43;2.10;;;;;;;21.16;nan;101898.50;6130342;23;20915;-91
2022/11/21 15:50:07;;;;;;;11.10;2.03;;;;;;;19.94;nan;101857.84;6117825;23;20385;-88
2022/11/21 15:52:50;;;;;;;18.03;2.60;;;;;;;19.85;nan;101846.19;6077858;23;20425;-88
2022/11/21 15:55:23;;;;;;;19.03;3.23;;;;;;;19.88;nan;101861.53;6102681;23;20804;-87
2022/11/21 15:57:52;;;;;;;18.60;2.23;;;;;;;19.79;nan;101846.28;6055187;23;20788;-88
2022/11/21 16:00:20;;;;;;;17.23;2.77;;;;;;;19.80;nan;101842.41;6078137;23;20416;-89
2022/11/21 16:02:48;;;;;;;22.27;2.60;;;;;;;19.84;nan;101854.72;6054153;23;20410;-88
2022/11/21 16:05:18;;;;;;;16.00;2.00;;;;;;;19.71;nan;101844.63;6078303;23;20484;-88
2022/11/21 16:07:48;;;;;;;11.00;1.83;;;;;;;19.75;nan;101845.88;6054058;23;20960;-90
2022/11/21 16:10:18;;;;;;;17.47;2.10;;;;;;;19.70;nan;101848.47;6054450;23;20488;-88
2022/11/21 16:12:54;;;;;;;24.03;2.10;;;;;;;19.59;nan;101841.75;6058897;23;20756;-88
2022/11/21 16:15:25;;;;;;;10.40;1.70;;;;;;;19.64;nan;101843.81;6055637;23;20421;-88
2022/11/21 16:17:54;;;;;;;18.97;2.40;;;;;;;19.57;nan;101831.94;6078139;23;20414;-89
2022/11/21 16:20:24;;;;;;;14.60;2.40;;;;;;;19.47;nan;101835.19;6078492;23;20706;-89